Pacific Dawn — 3ECJ9 — position and weather

sailwx.info

Track history (hours):
 
Tides and Currents Weather Stations Pressure Air Temp Water Temp Dewpoint Dewpoint Depression Visibility Wind Speed Wind Dir Waves Ship Positions

Pacific Dawn

Last reported at 2017-Aug-17 03:32 UTC. Time now 2017-Aug-19 22:37 UTC.
Position N 01°15' E 104°03'.

Length 239 m; draft 8 m.

Type: Tanker. MMSI: 371361000.

Date/timePositionNaut miles runAvg speedWind from/ knotsBaromVisibWave heightAir tempDewpointWater temp
2017-Aug-17 03:32N 01°15' E 104°03'111.2
2017-Aug-17 03:27N 01°15' E 104°02'510.4
2017-Aug-17 02:59N 01°15' E 103°57'3 1.5
2017-Aug-17 01:11N 01°16' E 103°55'0 0.0
2017-Aug-17 00:56N 01°16' E 103°55'0 0.0
2017-Aug-17 00:11N 01°16' E 103°55'0 0.1
2017-Aug-16 23:41N 01°16' E 103°55'0 0.0
2017-Aug-16 23:29N 01°16' E 103°55'0 0.0
2017-Aug-16 22:56N 01°16' E 103°55'0 0.0
2017-Aug-16 21:17N 01°16' E 103°55'0 0.0
2017-Aug-16 20:53N 01°16' E 103°55'0 0.0
2017-Aug-16 20:26N 01°16' E 103°55'0 0.1
2017-Aug-16 19:56N 01°16' E 103°55'0 0.0
2017-Aug-16 19:20N 01°16' E 103°55'0 0.0
2017-Aug-16 18:59N 01°16' E 103°55'0 0.0
2017-Aug-16 18:23N 01°16' E 103°55'0 0.0
2017-Aug-16 17:56N 01°16' E 103°55'0 0.0
2017-Aug-16 17:23N 01°16' E 103°55'0 0.0
2017-Aug-16 16:56N 01°16' E 103°55'0 0.0
2017-Aug-16 16:26N 01°16' E 103°55'0 0.0
2017-Aug-16 15:56N 01°16' E 103°55'0 0.0
2017-Aug-16 14:35N 01°16' E 103°55'0 0.3
2017-Aug-16 14:23N 01°16' E 103°55'0 0.0
2017-Aug-16 13:56N 01°16' E 103°55'0 0.0
2017-Aug-16 13:29N 01°16' E 103°55'0 0.1
2017-Aug-16 12:20N 01°16' E 103°55'0 0.0
2017-Aug-16 11:59N 01°16' E 103°55'0 0.0
2017-Aug-16 11:29N 01°16' E 103°55'0 0.0
2017-Aug-16 10:59N 01°16' E 103°55'0 0.1
2017-Aug-16 10:23N 01°16' E 103°55'0 0.3
2017-Aug-16 09:39N 01°16' E 103°55'0 0.8
2017-Aug-16 09:27N 01°16' E 103°55'2 4.3
2017-Aug-16 09:00N 01°16' E 103°57'3 6.1
2017-Aug-16 08:29N 01°16' E 103°60'3 5.3
2017-Aug-16 07:59N 01°16' E 104°03'4 7.7
2017-Aug-16 07:30N 01°17' E 104°06'  
Track history (hours):
 
Tides and Currents Weather Stations Pressure Air Temp Water Temp Dewpoint Dewpoint Depression Visibility Wind Speed Wind Dir Waves Ship Positions

Pacific Dawn

Last reported at 2017-Aug-17 03:32 UTC. Time now 2017-Aug-19 22:37 UTC.
Position N 01°15' E 104°03'.

Length 239 m; draft 8 m.

Type: Tanker. MMSI: 371361000.

Date/timePositionNaut miles runAvg speedWind from/ knotsBaromVisibWave heightAir tempDewpointWater temp
2017-Aug-17 03:32N 01°15' E 104°03'111.2
2017-Aug-17 03:27N 01°15' E 104°02'510.4
2017-Aug-17 02:59N 01°15' E 103°57'3 1.5
2017-Aug-17 01:11N 01°16' E 103°55'0 0.0
2017-Aug-17 00:56N 01°16' E 103°55'0 0.0
2017-Aug-17 00:11N 01°16' E 103°55'0 0.1
2017-Aug-16 23:41N 01°16' E 103°55'0 0.0
2017-Aug-16 23:29N 01°16' E 103°55'0 0.0
2017-Aug-16 22:56N 01°16' E 103°55'0 0.0
2017-Aug-16 21:17N 01°16' E 103°55'0 0.0
2017-Aug-16 20:53N 01°16' E 103°55'0 0.0
2017-Aug-16 20:26N 01°16' E 103°55'0 0.1
2017-Aug-16 19:56N 01°16' E 103°55'0 0.0
2017-Aug-16 19:20N 01°16' E 103°55'0 0.0
2017-Aug-16 18:59N 01°16' E 103°55'0 0.0
2017-Aug-16 18:23N 01°16' E 103°55'0 0.0
2017-Aug-16 17:56N 01°16' E 103°55'0 0.0
2017-Aug-16 17:23N 01°16' E 103°55'0 0.0
2017-Aug-16 16:56N 01°16' E 103°55'0 0.0
2017-Aug-16 16:26N 01°16' E 103°55'0 0.0
2017-Aug-16 15:56N 01°16' E 103°55'0 0.0
2017-Aug-16 14:35N 01°16' E 103°55'0 0.3
2017-Aug-16 14:23N 01°16' E 103°55'0 0.0
2017-Aug-16 13:56N 01°16' E 103°55'0 0.0
2017-Aug-16 13:29N 01°16' E 103°55'0 0.1
2017-Aug-16 12:20N 01°16' E 103°55'0 0.0
2017-Aug-16 11:59N 01°16' E 103°55'0 0.0
2017-Aug-16 11:29N 01°16' E 103°55'0 0.0
2017-Aug-16 10:59N 01°16' E 103°55'0 0.1
2017-Aug-16 10:23N 01°16' E 103°55'0 0.3
2017-Aug-16 09:39N 01°16' E 103°55'0 0.8
2017-Aug-16 09:27N 01°16' E 103°55'2 4.3
2017-Aug-16 09:00N 01°16' E 103°57'3 6.1
2017-Aug-16 08:29N 01°16' E 103°60'3 5.3
2017-Aug-16 07:59N 01°16' E 104°03'4 7.7
2017-Aug-16 07:30N 01°17' E 104°06'  

Dump ship's entire track history